Time,TemperatureF,DewpointF,PressureIn,WindDirection,WindDirectionDegrees,WindSpeedMPH,WindSpeedGustMPH,Humidity,HourlyPrecipIn,Conditions,Clouds,dailyrainin,SoftwareType,DateUTC
2013-07-15 06:40:00,64.0,62.5,29.72,SE,135,0.0,0.0,95,0.00,,---,0.19,VWS V14.00,2013-07-15 12:40:00,
2013-07-15 06:52:00,64.1,62.6,29.72,SE,146,0.0,0.0,95,0.00,,---,0.19,VWS V14.00,2013-07-15 12:52:00,
2013-07-15 06:53:00,64.1,62.6,29.72,SE,146,0.0,0.0,95,0.00,,---,0.19,VWS V14.00,2013-07-15 12:53:00,
2013-07-15 06:54:00,64.1,62.6,29.72,SE,146,0.0,0.0,95,0.00,,---,0.19,VWS V14.00,2013-07-15 12:54:00,
2013-07-15 06:59:00,64.3,62.8,29.72,SE,146,4.0,4.0,95,0.00,,---,0.19,VWS V14.00,2013-07-15 12:59:00,
2013-07-15 07:04:00,64.2,62.7,29.72,SE,146,0.0,4.0,95,0.00,,---,0.19,VWS V14.00,2013-07-15 13:04:00,
2013-07-15 07:09:00,64.2,62.7,29.72,SE,146,0.0,1.0,95,0.00,,---,0.19,VWS V14.00,2013-07-15 13:09:00,
2013-07-15 07:14:00,64.2,62.7,29.72,SE,146,0.0,1.0,95,0.00,,---,0.19,VWS V14.00,2013-07-15 13:14:00,
2013-07-15 07:19:00,64.1,62.6,29.72,SE,146,0.0,0.0,95,0.00,,---,0.19,VWS V14.00,2013-07-15 13:19:00,
2013-07-15 07:24:00,64.3,62.8,29.72,SE,146,0.0,1.0,95,0.00,,---,0.19,VWS V14.00,2013-07-15 13:24:00,
2013-07-15 07:29:00,64.4,62.9,29.73,SE,146,0.0,0.0,95,0.00,,---,0.19,VWS V14.00,2013-07-15 13:29:00,
2013-07-15 07:34:00,64.4,62.9,29.73,SSE,148,5.0,5.0,95,0.00,,---,0.19,VWS V14.00,2013-07-15 13:34:00,
2013-07-15 07:39:00,64.3,62.8,29.73,SSE,153,0.0,5.0,95,0.00,,---,0.19,VWS V14.00,2013-07-15 13:39:00,
2013-07-15 07:44:00,64.4,62.9,29.73,SSE,153,0.0,5.0,95,0.00,,---,0.19,VWS V14.00,2013-07-15 13:44:00,
2013-07-15 07:50:00,64.6,63.1,29.73,SSE,153,0.0,1.0,95,0.00,,---,0.19,VWS V14.00,2013-07-15 13:50:00,
2013-07-15 07:55:00,64.6,62.8,29.73,SSE,153,0.0,0.0,94,0.00,,---,0.19,VWS V14.00,2013-07-15 13:55:00,
2013-07-15 08:00:00,64.8,63.3,29.73,SSE,153,0.0,2.0,95,0.00,,---,0.19,VWS V14.00,2013-07-15 14:00:00,
2013-07-15 08:05:00,64.8,63.0,29.73,SSE,153,2.0,2.0,94,0.00,,---,0.19,VWS V14.00,2013-07-15 14:05:00,
2013-07-15 08:10:00,64.7,62.9,29.73,SSE,154,0.0,2.0,94,0.00,,---,0.19,VWS V14.00,2013-07-15 14:10:00,
2013-07-15 08:15:00,64.7,62.9,29.73,SSE,154,0.0,0.0,94,0.00,,---,0.19,VWS V14.00,2013-07-15 14:15:00,
2013-07-15 08:20:00,64.8,63.0,29.73,SSE,153,0.0,1.0,94,0.00,,---,0.19,VWS V14.00,2013-07-15 14:20:00,
2013-07-15 08:25:00,64.9,63.1,29.74,SSE,153,0.0,0.0,94,0.00,,---,0.19,VWS V14.00,2013-07-15 14:25:00,
2013-07-15 08:30:00,65.1,63.3,29.74,SSE,153,0.0,5.0,94,0.00,,---,0.19,VWS V14.00,2013-07-15 14:30:00,
2013-07-15 08:35:00,65.1,63.0,29.73,SE,140,0.0,0.0,93,0.00,,---,0.19,VWS V14.00,2013-07-15 14:35:00,
2013-07-15 08:40:00,65.1,63.0,29.73,SE,137,0.0,6.0,93,0.00,,---,0.19,VWS V14.00,2013-07-15 14:40:00,
2013-07-15 08:45:00,65.1,63.0,29.73,SE,135,0.0,1.0,93,0.00,,---,0.19,VWS V14.00,2013-07-15 14:45:00,
2013-07-15 08:51:00,65.1,63.0,29.73,SE,136,0.0,1.0,93,0.00,,---,0.19,VWS V14.00,2013-07-15 14:51:00,
2013-07-15 08:56:00,65.2,63.1,29.73,SE,137,0.0,1.0,93,0.00,,---,0.19,VWS V14.00,2013-07-15 14:56:00,
2013-07-15 09:01:00,65.3,63.2,29.73,SE,137,0.0,1.0,93,0.00,,---,0.19,VWS V14.00,2013-07-15 15:01:00,
2013-07-15 09:06:00,65.2,63.1,29.73,SE,137,0.0,0.0,93,0.00,,---,0.19,VWS V14.00,2013-07-15 15:06:00,
2013-07-15 09:11:00,65.3,63.2,29.73,SSE,154,0.0,5.0,93,0.00,,---,0.19,VWS V14.00,2013-07-15 15:11:00,
2013-07-15 09:16:00,65.5,63.4,29.73,SSE,154,0.0,0.0,93,0.00,,---,0.19,VWS V14.00,2013-07-15 15:16:00,
2013-07-15 09:21:00,65.6,63.2,29.73,SSE,154,0.0,4.0,92,0.00,,---,0.19,VWS V14.00,2013-07-15 15:21:00,
2013-07-15 09:26:00,65.9,63.8,29.73,SSE,154,1.0,1.0,93,0.00,,---,0.19,VWS V14.00,2013-07-15 15:26:00,
2013-07-15 09:32:00,66.1,63.4,29.72,SSE,153,0.0,4.0,91,0.00,,---,0.19,VWS V14.00,2013-07-15 15:32:00,
2013-07-15 09:38:00,66.2,63.5,29.72,SSE,156,2.0,5.0,91,0.00,,---,0.19,VWS V14.00,2013-07-15 15:38:00,
2013-07-15 09:43:00,66.4,63.4,29.72,SSE,159,0.0,7.0,90,0.00,,---,0.19,VWS V14.00,2013-07-15 15:43:00,
2013-07-15 09:48:00,66.4,63.1,29.72,SSE,159,0.0,4.0,89,0.00,,---,0.19,VWS V14.00,2013-07-15 15:48:00,
2013-07-15 09:53:00,66.4,62.7,29.72,SSE,159,0.0,5.0,88,0.00,,---,0.19,VWS V14.00,2013-07-15 15:53:00,
2013-07-15 09:58:00,66.6,62.9,29.72,SSE,160,2.0,4.0,88,0.00,,---,0.19,VWS V14.00,2013-07-15 15:58:00,
2013-07-15 10:03:00,66.9,63.2,29.72,SSE,161,0.0,5.0,88,0.00,,---,0.19,VWS V14.00,2013-07-15 16:03:00,
2013-07-15 10:08:00,67.2,63.5,29.72,SSE,160,0.0,0.0,88,0.00,,---,0.19,VWS V14.00,2013-07-15 16:08:00,
2013-07-15 10:13:00,67.4,63.4,29.72,SSE,160,0.0,0.0,87,0.00,,---,0.19,VWS V14.00,2013-07-15 16:13:00,
2013-07-15 10:19:00,68.0,64.3,29.72,SSE,160,0.0,1.0,88,0.00,,---,0.19,VWS V14.00,2013-07-15 16:19:00,
2013-07-15 10:24:00,68.4,63.7,29.72,SSE,160,1.0,5.0,85,0.00,,---,0.19,VWS V14.00,2013-07-15 16:24:00,
2013-07-15 10:30:00,68.9,63.5,29.72,SSE,160,1.0,1.0,83,0.00,,---,0.19,VWS V14.00,2013-07-15 16:30:00,
2013-07-15 10:35:00,69.7,63.6,29.72,South,173,2.0,4.0,81,0.00,,---,0.19,VWS V14.00,2013-07-15 16:35:00,
2013-07-15 10:40:00,69.8,63.4,29.72,SSW,202,0.0,5.0,80,0.00,,---,0.19,VWS V14.00,2013-07-15 16:40:00,
2013-07-15 10:45:00,70.0,63.5,29.72,WNW,288,0.0,0.0,80,0.00,,---,0.19,VWS V14.00,2013-07-15 16:45:00,
2013-07-15 10:50:00,70.1,62.9,29.71,SSW,194,0.0,3.0,78,0.00,,---,0.19,VWS V14.00,2013-07-15 16:50:00,
2013-07-15 10:56:00,70.3,63.5,29.71,SSW,195,0.0,0.0,79,0.00,,---,0.19,VWS V14.00,2013-07-15 16:56:00,
2013-07-15 11:02:00,71.0,63.8,29.71,SSW,195,0.0,4.0,78,0.00,,---,0.19,VWS V14.00,2013-07-15 17:02:00,
2013-07-15 11:07:00,71.8,63.1,29.71,SE,139,0.0,6.0,74,0.00,,---,0.19,VWS V14.00,2013-07-15 17:07:00,
2013-07-15 11:12:00,72.3,62.4,29.71,ESE,123,6.0,7.0,71,0.00,,---,0.19,VWS V14.00,2013-07-15 17:12:00,
2013-07-15 11:17:00,72.5,62.2,29.71,SSE,155,0.0,7.0,70,0.00,,---,0.19,VWS V14.00,2013-07-15 17:17:00,
2013-07-15 11:23:00,73.0,62.7,29.71,SSE,148,0.0,7.0,70,0.00,,---,0.19,VWS V14.00,2013-07-15 17:23:00,
2013-07-15 11:28:00,73.5,62.3,29.71,SE,130,2.0,6.0,68,0.00,,---,0.19,VWS V14.00,2013-07-15 17:28:00,
2013-07-15 11:33:00,73.8,61.7,29.71,ESE,121,0.0,6.0,66,0.00,,---,0.19,VWS V14.00,2013-07-15 17:33:00,
2013-07-15 11:38:00,74.7,62.2,29.71,East,82,0.0,8.0,65,0.00,,---,0.19,VWS V14.00,2013-07-15 17:38:00,
2013-07-15 11:43:00,75.0,62.9,29.70,ESE,113,1.0,8.0,66,0.00,,---,0.19,VWS V14.00,2013-07-15 17:43:00,
2013-07-15 11:48:00,75.5,62.0,29.70,ENE,64,0.0,5.0,63,0.00,,---,0.19,VWS V14.00,2013-07-15 17:48:00,
2013-07-15 11:54:00,75.7,61.8,29.70,ESE,115,0.0,9.0,62,0.00,,---,0.19,VWS V14.00,2013-07-15 17:54:00,
2013-07-15 11:59:00,76.1,63.0,29.70,SE,128,6.0,8.0,64,0.00,,---,0.19,VWS V14.00,2013-07-15 17:59:00,
2013-07-15 12:04:00,76.2,61.3,29.70,ESE,112,5.0,14.0,60,0.00,,---,0.19,VWS V14.00,2013-07-15 18:04:00,
2013-07-15 12:09:00,76.4,62.0,29.69,SSE,151,6.0,8.0,61,0.00,,---,0.19,VWS V14.00,2013-07-15 18:09:00,
2013-07-15 12:14:00,76.8,61.4,29.69,East,96,4.0,8.0,59,0.00,,---,0.19,VWS V14.00,2013-07-15 18:14:00,
2013-07-15 12:20:00,76.1,61.2,29.69,SE,143,6.0,10.0,60,0.00,,---,0.19,VWS V14.00,2013-07-15 18:20:00,
2013-07-15 12:25:00,75.1,61.7,29.69,SSE,147,5.0,7.0,63,0.00,,---,0.19,VWS V14.00,2013-07-15 18:25:00,
2013-07-15 12:30:00,75.6,62.6,29.69,SSE,147,5.0,9.0,64,0.00,,---,0.19,VWS V14.00,2013-07-15 18:30:00,
2013-07-15 12:35:00,76.1,62.2,29.69,ESE,108,4.0,6.0,62,0.00,,---,0.19,VWS V14.00,2013-07-15 18:35:00,
2013-07-15 12:40:00,76.1,63.0,29.69,SSE,148,5.0,13.0,64,0.00,,---,0.19,VWS V14.00,2013-07-15 18:40:00,
2013-07-15 12:46:00,76.7,63.2,29.69,ESE,120,4.0,10.0,63,0.00,,---,0.19,VWS V14.00,2013-07-15 18:46:00,
2013-07-15 12:51:00,77.4,62.0,29.68,East,84,3.0,10.0,59,0.00,,---,0.19,VWS V14.00,2013-07-15 18:51:00,
2013-07-15 12:56:00,77.5,62.5,29.68,ENE,65,4.0,7.0,60,0.00,,---,0.19,VWS V14.00,2013-07-15 18:56:00,
2013-07-15 13:01:00,77.9,61.5,29.68,East,90,4.0,9.0,57,0.00,,---,0.19,VWS V14.00,2013-07-15 19:01:00,
2013-07-15 13:06:00,77.1,61.2,29.68,ESE,117,7.0,12.0,58,0.00,,---,0.19,VWS V14.00,2013-07-15 19:06:00,
2013-07-15 13:11:00,76.0,61.1,29.68,ESE,121,5.0,13.0,60,0.00,,---,0.19,VWS V14.00,2013-07-15 19:11:00,
2013-07-15 13:16:00,75.8,60.5,29.67,ESE,110,9.0,12.0,59,0.00,,---,0.19,VWS V14.00,2013-07-15 19:16:00,
2013-07-15 13:21:00,76.8,61.4,29.68,ESE,120,5.0,12.0,59,0.00,,---,0.19,VWS V14.00,2013-07-15 19:21:00,
2013-07-15 13:26:00,76.8,61.4,29.67,ESE,123,8.0,16.0,59,0.00,,---,0.19,VWS V14.00,2013-07-15 19:26:00,
2013-07-15 13:33:00,74.9,61.9,29.68,ESE,122,12.0,18.0,64,0.00,,---,0.19,VWS V14.00,2013-07-15 19:33:00,
2013-07-15 13:38:00,74.6,62.5,29.68,SE,140,14.0,18.0,66,0.00,,---,0.19,VWS V14.00,2013-07-15 19:38:00,
2013-07-15 13:44:00,75.0,62.5,29.68,ESE,114,12.0,20.0,65,0.00,,---,0.19,VWS V14.00,2013-07-15 19:44:00,
2013-07-15 13:49:00,75.2,62.6,29.68,SSE,157,14.0,20.0,65,0.00,,---,0.19,VWS V14.00,2013-07-15 19:49:00,
2013-07-15 13:54:00,75.5,62.9,29.67,SE,142,12.0,20.0,65,0.00,,---,0.19,VWS V14.00,2013-07-15 19:54:00,
2013-07-15 13:59:00,75.3,61.4,29.67,SE,128,8.0,19.0,62,0.00,,---,0.19,VWS V14.00,2013-07-15 19:59:00,
2013-07-15 14:04:00,74.7,61.3,29.67,SE,132,14.0,21.0,63,0.00,,---,0.19,VWS V14.00,2013-07-15 20:04:00,
2013-07-15 14:09:00,74.5,62.0,29.67,SE,140,13.0,20.0,65,0.00,,---,0.19,VWS V14.00,2013-07-15 20:09:00,
2013-07-15 14:14:00,74.4,61.4,29.68,SE,144,14.0,20.0,64,0.00,,---,0.19,VWS V14.00,2013-07-15 20:14:00,
2013-07-15 14:19:00,73.2,60.7,29.68,SE,146,15.0,22.0,65,0.00,,---,0.19,VWS V14.00,2013-07-15 20:19:00,
2013-07-15 14:25:00,71.8,60.7,29.68,SE,143,12.0,13.0,68,0.00,,---,0.19,VWS V14.00,2013-07-15 20:25:00,
2013-07-15 14:30:00,71.4,60.7,29.68,SSE,155,13.0,22.0,69,0.00,,---,0.19,VWS V14.00,2013-07-15 20:30:00,
2013-07-15 14:35:00,71.2,60.9,29.68,SSE,165,13.0,15.0,70,0.00,,---,0.19,VWS V14.00,2013-07-15 20:35:00,
2013-07-15 14:40:00,70.9,60.2,29.68,SE,138,14.0,20.0,69,0.00,,---,0.19,VWS V14.00,2013-07-15 20:40:00,
2013-07-15 14:45:00,70.7,60.8,29.68,SSE,168,10.0,14.0,71,0.00,,---,0.19,VWS V14.00,2013-07-15 20:45:00,
2013-07-15 14:51:00,70.6,61.1,29.68,SSE,165,10.0,15.0,72,0.00,,---,0.19,VWS V14.00,2013-07-15 20:51:00,
2013-07-15 14:56:00,70.3,61.2,29.68,SSE,150,14.0,16.0,73,0.00,,---,0.19,VWS V14.00,2013-07-15 20:56:00,
2013-07-15 15:01:00,70.2,61.2,29.68,South,171,10.0,16.0,73,0.00,,---,0.19,VWS V14.00,2013-07-15 21:01:00,
2013-07-15 15:06:00,70.1,60.7,29.68,SSE,165,11.0,14.0,72,0.00,,---,0.19,VWS V14.00,2013-07-15 21:06:00,
2013-07-15 15:12:00,70.0,60.6,29.68,South,190,7.0,14.0,72,0.00,,---,0.19,VWS V14.00,2013-07-15 21:12:00,
2013-07-15 15:17:00,69.9,60.1,29.68,SSE,165,10.0,12.0,71,0.00,,---,0.19,VWS V14.00,2013-07-15 21:17:00,
2013-07-15 15:22:00,70.1,61.0,29.68,South,174,6.0,12.0,73,0.00,,---,0.19,VWS V14.00,2013-07-15 21:22:00,
2013-07-15 15:28:00,70.1,60.7,29.67,South,173,8.0,13.0,72,0.00,,---,0.19,VWS V14.00,2013-07-15 21:28:00,
2013-07-15 15:33:00,70.9,61.4,29.67,SSE,168,9.0,13.0,72,0.00,,---,0.19,VWS V14.00,2013-07-15 21:33:00,
2013-07-15 15:38:00,72.0,62.1,29.67,South,186,7.0,12.0,71,0.00,,---,0.19,VWS V14.00,2013-07-15 21:38:00,
2013-07-15 15:43:00,72.1,61.8,29.68,South,186,5.0,13.0,70,0.00,,---,0.19,VWS V14.00,2013-07-15 21:43:00,
2013-07-15 15:48:00,72.7,61.5,29.68,SSE,166,6.0,11.0,68,0.00,,---,0.19,VWS V14.00,2013-07-15 21:48:00,
2013-07-15 15:54:00,72.8,61.2,29.67,South,175,5.0,12.0,67,0.00,,---,0.19,VWS V14.00,2013-07-15 21:54:00,
2013-07-15 16:00:00,73.0,61.4,29.67,SSE,159,9.0,15.0,67,0.00,,---,0.19,VWS V14.00,2013-07-15 22:00:00,
2013-07-15 16:05:00,72.5,60.1,29.67,SSE,157,8.0,8.0,65,0.00,,---,0.19,VWS V14.00,2013-07-15 22:05:00,
2013-07-15 16:10:00,73.0,60.5,29.67,SSW,213,6.0,12.0,65,0.00,,---,0.19,VWS V14.00,2013-07-15 22:10:00,
2013-07-15 16:15:00,73.4,60.0,29.66,South,182,4.0,8.0,63,0.00,,---,0.19,VWS V14.00,2013-07-15 22:15:00,
2013-07-15 16:20:00,73.6,60.2,29.66,SSW,192,6.0,12.0,63,0.00,,---,0.19,VWS V14.00,2013-07-15 22:20:00,
2013-07-15 16:25:00,73.9,59.6,29.66,SSE,158,9.0,12.0,61,0.00,,---,0.19,VWS V14.00,2013-07-15 22:25:00,
2013-07-15 16:31:00,73.4,59.6,29.66,SSE,165,6.0,15.0,62,0.00,,---,0.19,VWS V14.00,2013-07-15 22:31:00,
2013-07-15 16:36:00,73.8,59.5,29.66,South,182,5.0,15.0,61,0.00,,---,0.19,VWS V14.00,2013-07-15 22:36:00,
2013-07-15 16:41:00,73.9,59.6,29.66,South,177,6.0,15.0,61,0.00,,---,0.19,VWS V14.00,2013-07-15 22:41:00,
2013-07-15 16:47:00,73.7,59.4,29.66,SSW,203,6.0,10.0,61,0.00,,---,0.19,VWS V14.00,2013-07-15 22:47:00,
2013-07-15 16:52:00,73.7,59.0,29.65,SSW,207,11.0,13.0,60,0.00,,---,0.19,VWS V14.00,2013-07-15 22:52:00,
2013-07-15 16:57:00,73.6,58.9,29.65,SSW,192,8.0,11.0,60,0.00,,---,0.19,VWS V14.00,2013-07-15 22:57:00,
2013-07-15 17:02:00,74.4,59.2,29.65,SSE,160,11.0,15.0,59,0.00,,---,0.19,VWS V14.00,2013-07-15 23:02:00,
2013-07-15 17:07:00,74.5,58.8,29.65,SSE,163,8.0,15.0,58,0.00,,---,0.19,VWS V14.00,2013-07-15 23:07:00,
2013-07-15 17:12:00,74.0,58.3,29.65,South,180,7.0,15.0,58,0.00,,---,0.19,VWS V14.00,2013-07-15 23:12:00,
2013-07-15 17:17:00,73.6,58.4,29.65,South,183,5.0,13.0,59,0.00,,---,0.19,VWS V14.00,2013-07-15 23:17:00,
2013-07-15 17:23:00,73.6,58.9,29.65,South,172,7.0,13.0,60,0.00,,---,0.19,VWS V14.00,2013-07-15 23:23:00,
2013-07-15 17:29:00,74.1,58.9,29.65,South,176,9.0,13.0,59,0.00,,---,0.19,VWS V14.00,2013-07-15 23:29:00,
2013-07-15 17:34:00,73.9,59.2,29.65,South,184,4.0,15.0,60,0.00,,---,0.19,VWS V14.00,2013-07-15 23:34:00,
2013-07-15 17:39:00,73.6,58.4,29.65,SSE,162,8.0,12.0,59,0.00,,---,0.19,VWS V14.00,2013-07-15 23:39:00,
2013-07-15 17:44:00,73.4,58.2,29.65,SSE,167,9.0,12.0,59,0.00,,---,0.19,VWS V14.00,2013-07-15 23:44:00,
2013-07-15 17:50:00,73.4,58.2,29.65,South,186,6.0,12.0,59,0.00,,---,0.19,VWS V14.00,2013-07-15 23:50:00,
2013-07-15 17:55:00,73.3,58.1,29.65,South,169,9.0,9.0,59,0.00,,---,0.19,VWS V14.00,2013-07-15 23:55:00,
2013-07-15 18:00:00,73.1,57.9,29.65,SSE,165,7.0,14.0,59,0.00,,---,0.19,VWS V14.00,2013-07-16 00:00:00,
2013-07-15 18:05:00,72.9,57.3,29.65,SSW,198,4.0,9.0,58,0.00,,---,0.19,VWS V14.00,2013-07-16 00:05:00,
2013-07-15 18:10:00,72.9,57.3,29.65,South,186,6.0,10.0,58,0.00,,---,0.19,VWS V14.00,2013-07-16 00:10:00,
2013-07-15 18:15:00,72.8,56.7,29.65,South,169,11.0,11.0,57,0.00,,---,0.19,VWS V14.00,2013-07-16 00:15:00,
2013-07-15 18:20:00,72.7,56.6,29.65,South,191,4.0,14.0,57,0.00,,---,0.19,VWS V14.00,2013-07-16 00:20:00,
2013-07-15 18:25:00,72.7,56.6,29.65,South,190,5.0,11.0,57,0.00,,---,0.19,VWS V14.00,2013-07-16 00:25:00,
2013-07-15 18:31:00,72.8,56.2,29.65,South,177,6.0,11.0,56,0.00,,---,0.19,VWS V14.00,2013-07-16 00:31:00,
2013-07-15 18:36:00,72.9,56.3,29.65,SSW,192,5.0,10.0,56,0.00,,---,0.19,VWS V14.00,2013-07-16 00:36:00,
2013-07-15 18:41:00,72.9,56.3,29.65,South,178,6.0,10.0,56,0.00,,---,0.19,VWS V14.00,2013-07-16 00:41:00,
2013-07-15 18:46:00,72.8,56.2,29.66,SSW,202,9.0,9.0,56,0.00,,---,0.19,VWS V14.00,2013-07-16 00:46:00,
2013-07-15 18:52:00,72.6,56.0,29.66,SSW,192,1.0,12.0,56,0.00,,---,0.19,VWS V14.00,2013-07-16 00:52:00,
2013-07-15 18:57:00,72.7,56.6,29.66,South,186,7.0,10.0,57,0.00,,---,0.19,VWS V14.00,2013-07-16 00:57:00,
2013-07-15 19:02:00,72.8,56.2,29.66,South,179,6.0,12.0,56,0.00,,---,0.19,VWS V14.00,2013-07-16 01:02:00,
2013-07-15 19:07:00,72.9,56.3,29.66,South,173,7.0,9.0,56,0.00,,---,0.19,VWS V14.00,2013-07-16 01:07:00,
2013-07-15 19:13:00,72.9,56.3,29.66,South,173,6.0,11.0,56,0.00,,---,0.19,VWS V14.00,2013-07-16 01:13:00,
2013-07-15 19:18:00,72.9,56.8,29.66,SSE,163,8.0,9.0,57,0.00,,---,0.19,VWS V14.00,2013-07-16 01:18:00,
2013-07-15 19:24:00,72.7,56.1,29.66,South,178,8.0,11.0,56,0.00,,---,0.19,VWS V14.00,2013-07-16 01:24:00,
2013-07-15 19:29:00,72.7,56.1,29.66,South,180,6.0,11.0,56,0.00,,---,0.19,VWS V14.00,2013-07-16 01:29:00,
2013-07-15 19:34:00,72.7,56.1,29.66,SSW,194,8.0,11.0,56,0.00,,---,0.19,VWS V14.00,2013-07-16 01:34:00,
2013-07-15 19:40:00,72.6,56.0,29.66,South,191,6.0,10.0,56,0.00,,---,0.19,VWS V14.00,2013-07-16 01:40:00,
2013-07-15 19:45:00,72.6,56.5,29.66,South,176,5.0,5.0,57,0.00,,---,0.19,VWS V14.00,2013-07-16 01:45:00,
2013-07-15 19:50:00,72.4,56.3,29.67,SSW,196,6.0,7.0,57,0.00,,---,0.19,VWS V14.00,2013-07-16 01:50:00,
2013-07-15 19:55:00,72.1,56.5,29.66,SSW,198,0.0,5.0,58,0.00,,---,0.19,VWS V14.00,2013-07-16 01:55:00,
2013-07-15 20:00:00,71.8,56.2,29.66,SSW,192,0.0,7.0,58,0.00,,---,0.19,VWS V14.00,2013-07-16 02:00:00,
2013-07-15 20:05:00,71.5,56.4,29.67,South,188,2.0,5.0,59,0.00,,---,0.19,VWS V14.00,2013-07-16 02:05:00,
2013-07-15 20:10:00,71.3,56.2,29.67,South,187,0.0,7.0,59,0.00,,---,0.19,VWS V14.00,2013-07-16 02:10:00,
2013-07-15 20:15:00,71.2,56.6,29.67,SSW,195,0.0,3.0,60,0.00,,---,0.19,VWS V14.00,2013-07-16 02:15:00,
2013-07-15 20:20:00,71.1,56.1,29.67,SSW,192,0.0,5.0,59,0.00,,---,0.19,VWS V14.00,2013-07-16 02:20:00,
2013-07-15 20:26:00,70.9,55.9,29.67,SSW,196,0.0,2.0,59,0.00,,---,0.19,VWS V14.00,2013-07-16 02:26:00,
2013-07-15 20:31:00,70.7,56.2,29.67,SSW,203,0.0,4.0,60,0.00,,---,0.19,VWS V14.00,2013-07-16 02:31:00,
2013-07-15 20:36:00,70.4,56.3,29.67,SSW,203,0.0,0.0,61,0.00,,---,0.19,VWS V14.00,2013-07-16 02:36:00,
2013-07-15 20:41:00,70.3,55.8,29.68,SSW,205,0.0,1.0,60,0.00,,---,0.19,VWS V14.00,2013-07-16 02:41:00,
2013-07-15 20:46:00,70.1,55.6,29.68,SSW,204,0.0,0.0,60,0.00,,---,0.19,VWS V14.00,2013-07-16 02:46:00,
2013-07-15 20:51:00,69.9,55.8,29.68,SW,224,0.0,1.0,61,0.00,,---,0.19,VWS V14.00,2013-07-16 02:51:00,
2013-07-15 20:57:00,69.7,56.1,29.68,SW,224,0.0,0.0,62,0.00,,---,0.19,VWS V14.00,2013-07-16 02:57:00,
2013-07-15 21:03:00,69.5,56.4,29.68,SW,224,0.0,0.0,63,0.00,,---,0.19,VWS V14.00,2013-07-16 03:03:00,
2013-07-15 21:08:00,69.3,56.2,29.68,SW,223,0.0,1.0,63,0.00,,---,0.19,VWS V14.00,2013-07-16 03:08:00,
2013-07-15 21:13:00,69.3,56.6,29.68,SW,227,2.0,3.0,64,0.00,,---,0.19,VWS V14.00,2013-07-16 03:13:00,
2013-07-15 21:19:00,69.2,56.5,29.68,SW,223,2.0,5.0,64,0.00,,---,0.19,VWS V14.00,2013-07-16 03:19:00,
2013-07-15 21:24:00,69.2,56.5,29.69,SW,226,0.0,5.0,64,0.00,,---,0.19,VWS V14.00,2013-07-16 03:24:00,
2013-07-15 21:29:00,69.2,56.5,29.69,SW,226,3.0,4.0,64,0.00,,---,0.19,VWS V14.00,2013-07-16 03:29:00,
2013-07-15 21:34:00,69.2,56.5,29.69,SW,226,0.0,4.0,64,0.00,,---,0.19,VWS V14.00,2013-07-16 03:34:00,
2013-07-15 21:40:00,69.2,57.0,29.69,SW,226,0.0,3.0,65,0.00,,---,0.19,VWS V14.00,2013-07-16 03:40:00,
2013-07-15 21:45:00,69.1,56.8,29.69,SW,226,0.0,0.0,65,0.00,,---,0.19,VWS V14.00,2013-07-16 03:45:00,
2013-07-15 21:50:00,68.6,57.6,29.70,South,173,1.0,5.0,68,0.00,,---,0.19,VWS V14.00,2013-07-16 03:50:00,
2013-07-15 21:55:00,67.7,57.2,29.70,South,173,0.0,0.0,69,0.00,,---,0.19,VWS V14.00,2013-07-16 03:55:00,
2013-07-15 22:00:00,67.7,56.8,29.70,SSE,154,0.0,7.0,68,0.00,,---,0.19,VWS V14.00,2013-07-16 04:00:00,
2013-07-15 22:01:00,67.7,56.8,29.70,SSE,161,6.0,7.0,68,0.00,,---,0.19,VWS V14.00,2013-07-16 04:01:00,
2013-07-15 22:02:00,67.7,56.0,29.70,SSE,155,7.0,7.0,66,0.00,,---,0.19,VWS V14.00,2013-07-16 04:02:00,
2013-07-15 22:04:00,67.7,56.0,29.70,SSE,157,7.0,8.0,66,0.00,,---,0.19,VWS V14.00,2013-07-16 04:04:00,
2013-07-15 22:06:00,67.7,55.5,29.70,SSE,156,7.0,9.0,65,0.00,,---,0.19,VWS V14.00,2013-07-16 04:06:00,
2013-07-15 22:12:00,67.4,55.2,29.70,South,171,4.0,9.0,65,0.00,,---,0.19,VWS V14.00,2013-07-16 04:12:00,
2013-07-15 22:17:00,67.0,55.3,29.70,South,180,1.0,6.0,66,0.00,,---,0.19,VWS V14.00,2013-07-16 04:17:00,
2013-07-15 22:22:00,66.7,55.0,29.70,South,177,5.0,8.0,66,0.00,,---,0.19,VWS V14.00,2013-07-16 04:22:00,
2013-07-15 22:27:00,66.3,54.6,29.71,South,171,8.0,8.0,66,0.00,,---,0.19,VWS V14.00,2013-07-16 04:27:00,
2013-07-15 22:32:00,66.1,55.2,29.71,South,176,5.0,9.0,68,0.00,,---,0.19,VWS V14.00,2013-07-16 04:32:00,
2013-07-15 22:37:00,65.9,55.5,29.71,SSW,197,3.0,7.0,69,0.00,,---,0.19,VWS V14.00,2013-07-16 04:37:00,
2013-07-15 22:42:00,65.7,54.9,29.71,South,185,6.0,9.0,68,0.00,,---,0.19,VWS V14.00,2013-07-16 04:42:00,
2013-07-15 22:47:00,65.6,54.4,29.71,South,179,8.0,11.0,67,0.00,,---,0.19,VWS V14.00,2013-07-16 04:47:00,
2013-07-15 22:52:00,65.5,53.8,29.71,South,190,9.0,11.0,66,0.00,,---,0.19,VWS V14.00,2013-07-16 04:52:00,
2013-07-15 22:57:00,65.3,52.8,29.72,South,186,7.0,11.0,64,0.00,,---,0.19,VWS V14.00,2013-07-16 04:57:00,
2013-07-15 23:03:00,65.2,52.7,29.71,South,172,10.0,11.0,64,0.00,,---,0.19,VWS V14.00,2013-07-16 05:03:00,
2013-07-15 23:08:00,65.2,52.3,29.71,South,179,9.0,11.0,63,0.00,,---,0.19,VWS V14.00,2013-07-16 05:08:00,
2013-07-15 23:13:00,65.2,51.9,29.71,SSW,196,5.0,12.0,62,0.00,,---,0.19,VWS V14.00,2013-07-16 05:13:00,
2013-07-15 23:18:00,65.0,50.8,29.72,South,178,7.0,11.0,60,0.00,,---,0.19,VWS V14.00,2013-07-16 05:18:00,
2013-07-15 23:23:00,64.9,50.2,29.72,South,188,7.0,11.0,59,0.00,,---,0.19,VWS V14.00,2013-07-16 05:23:00,
2013-07-15 23:28:00,64.7,50.1,29.72,South,188,6.0,10.0,59,0.00,,---,0.19,VWS V14.00,2013-07-16 05:28:00,
2013-07-15 23:33:00,64.7,50.1,29.72,South,190,8.0,10.0,59,0.00,,---,0.19,VWS V14.00,2013-07-16 05:33:00,
2013-07-15 23:38:00,64.5,49.9,29.72,SSW,205,6.0,8.0,59,0.00,,---,0.19,VWS V14.00,2013-07-16 05:38:00,
2013-07-15 23:43:00,64.3,49.7,29.72,SSW,192,6.0,9.0,59,0.00,,---,0.19,VWS V14.00,2013-07-16 05:43:00,
2013-07-15 23:48:00,64.0,49.4,29.72,SSW,205,5.0,8.0,59,0.00,,---,0.19,VWS V14.00,2013-07-16 05:48:00,
2013-07-15 23:53:00,64.0,48.9,29.72,SSW,209,6.0,8.0,58,0.00,,---,0.19,VWS V14.00,2013-07-16 05:53:00,
2013-07-15 23:58:00,63.9,48.8,29.72,SSW,202,4.0,8.0,58,0.00,,---,0.00,VWS V14.00,2013-07-16 05:58:00,